SFR31D FAOR-FALA
Flight info
| Callsign | SFR31D |
|---|---|
| Flight time | 0h 38m |
| Altitude | 12000 |
| Route | VASUR3A VASUR DCT OKPIT/N0412F200 |
| Aircraft | B737/M-SDE2E3FGHIRWXY/LB1 |
Departure
| Time | 2026-04-30 12:15 |
|---|---|
| Airport | O.R. Tambo International Airport (FAOR) |
Arrival
| Time | 2026-04-30 12:54 |
|---|---|
| Airport | Lanseria International Airport (FALA) |
| Time | Latitude | Longitude | Altitude | Speed | Heading |
|---|---|---|---|---|---|
| 2026-04-30 12:04 | -26.13477 | 28.23272 | 5548 ft | 0 kts | 275° |
| 2026-04-30 12:08 | -26.13478 | 28.23291 | 5549 ft | 2 kts | 275° |
| 2026-04-30 12:08 | -26.13480 | 28.23309 | 5552 ft | 2 kts | 275° |
| 2026-04-30 12:09 | -26.13481 | 28.23328 | 5552 ft | 2 kts | 272° |
| 2026-04-30 12:09 | -26.13478 | 28.23346 | 5550 ft | 2 kts | 239° |
| 2026-04-30 12:09 | -26.13468 | 28.23360 | 5550 ft | 2 kts | 218° |
| 2026-04-30 12:09 | -26.13455 | 28.23368 | 5551 ft | 1 kts | 196° |
| 2026-04-30 12:10 | -26.13452 | 28.23370 | 5547 ft | 0 kts | 191° |
| 2026-04-30 12:11 | -26.13474 | 28.23366 | 5550 ft | 6 kts | 186° |
| 2026-04-30 12:12 | -26.13541 | 28.23360 | 5551 ft | 14 kts | 186° |
| 2026-04-30 12:12 | -26.13645 | 28.23348 | 5551 ft | 15 kts | 185° |
| 2026-04-30 12:12 | -26.13746 | 28.23337 | 5554 ft | 14 kts | 187° |
| 2026-04-30 12:12 | -26.13838 | 28.23333 | 5553 ft | 12 kts | 157° |
| 2026-04-30 12:13 | -26.13869 | 28.23399 | 5554 ft | 9 kts | 106° |
| 2026-04-30 12:13 | -26.13886 | 28.23468 | 5558 ft | 9 kts | 106° |
| 2026-04-30 12:13 | -26.13904 | 28.23535 | 5556 ft | 9 kts | 106° |
| 2026-04-30 12:13 | -26.13920 | 28.23601 | 5558 ft | 9 kts | 104° |
| 2026-04-30 12:14 | -26.13904 | 28.23663 | 5557 ft | 8 kts | 41° |
| 2026-04-30 12:14 | -26.13890 | 28.23669 | 5557 ft | 0 kts | 19° |
| 2026-04-30 12:14 | -26.13869 | 28.23677 | 5557 ft | 20 kts | 17° |
| 2026-04-30 12:14 | -26.13514 | 28.23786 | 5549 ft | 85 kts | 15° |
| 2026-04-30 12:15 | -26.12755 | 28.24020 | 5537 ft | 139 kts | 15° |
| 2026-04-30 12:15 | -26.11701 | 28.24372 | 5756 ft | 166 kts | 12° |
| 2026-04-30 12:15 | -26.10553 | 28.24724 | 6430 ft | 177 kts | 11° |
| 2026-04-30 12:15 | -26.09342 | 28.25079 | 7075 ft | 179 kts | 10° |
| 2026-04-30 12:16 | -26.08110 | 28.25411 | 7585 ft | 192 kts | 9° |
| 2026-04-30 12:16 | -26.06743 | 28.25781 | 7797 ft | 212 kts | 10° |
| 2026-04-30 12:16 | -26.05216 | 28.26047 | 7978 ft | 232 kts | 355° |
| 2026-04-30 12:16 | -26.03558 | 28.25709 | 8205 ft | 254 kts | 339° |
| 2026-04-30 12:17 | -26.00687 | 28.23349 | 9539 ft | 266 kts | 310° |
| 2026-04-30 12:17 | -25.99797 | 28.21510 | 10235 ft | 273 kts | 295° |
| 2026-04-30 12:17 | -25.99069 | 28.19528 | 10750 ft | 285 kts | 295° |
| 2026-04-30 12:18 | -25.98298 | 28.17393 | 10890 ft | 309 kts | 294° |
| 2026-04-30 12:18 | -25.97470 | 28.15099 | 11061 ft | 330 kts | 296° |
| 2026-04-30 12:18 | -25.96238 | 28.12884 | 11186 ft | 347 kts | 311° |
| 2026-04-30 12:18 | -25.94364 | 28.11138 | 11479 ft | 359 kts | 329° |
| 2026-04-30 12:19 | -25.92149 | 28.09802 | 11895 ft | 366 kts | 332° |
| 2026-04-30 12:19 | -25.89869 | 28.08519 | 12254 ft | 367 kts | 333° |
| 2026-04-30 12:19 | -25.87551 | 28.07225 | 12278 ft | 377 kts | 333° |
| 2026-04-30 12:19 | -25.85191 | 28.05898 | 12256 ft | 382 kts | 333° |
| 2026-04-30 12:20 | -25.82830 | 28.04556 | 12251 ft | 380 kts | 332° |
| 2026-04-30 12:20 | -25.80489 | 28.03215 | 12244 ft | 378 kts | 332° |
| 2026-04-30 12:20 | -25.78151 | 28.01870 | 12259 ft | 378 kts | 332° |
| 2026-04-30 12:20 | -25.75844 | 28.00539 | 12251 ft | 379 kts | 332° |
| 2026-04-30 12:21 | -25.73501 | 27.99188 | 12255 ft | 381 kts | 332° |
| 2026-04-30 12:21 | -25.71148 | 27.97833 | 12221 ft | 382 kts | 332° |
| 2026-04-30 12:21 | -25.68786 | 27.96475 | 12233 ft | 383 kts | 332° |
| 2026-04-30 12:21 | -25.66294 | 27.95463 | 12218 ft | 385 kts | 348° |
| 2026-04-30 12:22 | -25.63616 | 27.95320 | 12229 ft | 388 kts | 3° |
| 2026-04-30 12:22 | -25.60976 | 27.95963 | 12223 ft | 392 kts | 18° |
| 2026-04-30 12:22 | -25.58525 | 27.97310 | 12219 ft | 395 kts | 28° |
| 2026-04-30 12:22 | -25.56356 | 27.99184 | 12209 ft | 400 kts | 45° |
| 2026-04-30 12:23 | -25.54928 | 28.01838 | 12215 ft | 408 kts | 69° |
| 2026-04-30 12:23 | -25.54336 | 28.04921 | 12222 ft | 411 kts | 79° |
| 2026-04-30 12:23 | -25.53961 | 28.08061 | 12220 ft | 411 kts | 80° |
| 2026-04-30 12:23 | -25.53630 | 28.11206 | 12208 ft | 412 kts | 81° |
| 2026-04-30 12:24 | -25.53303 | 28.14359 | 12211 ft | 412 kts | 81° |
| 2026-04-30 12:24 | -25.52966 | 28.17512 | 12208 ft | 412 kts | 80° |
| 2026-04-30 12:24 | -25.52615 | 28.20656 | 12214 ft | 412 kts | 80° |
| 2026-04-30 12:24 | -25.52253 | 28.23807 | 12220 ft | 412 kts | 80° |
| 2026-04-30 12:25 | -25.51885 | 28.26956 | 12236 ft | 413 kts | 80° |
| 2026-04-30 12:25 | -25.51510 | 28.30120 | 12215 ft | 414 kts | 79° |
| 2026-04-30 12:25 | -25.51134 | 28.33276 | 12212 ft | 413 kts | 79° |
| 2026-04-30 12:25 | -25.50757 | 28.36429 | 12218 ft | 413 kts | 79° |
| 2026-04-30 12:26 | -25.50382 | 28.39569 | 12219 ft | 412 kts | 79° |
| 2026-04-30 12:26 | -25.50004 | 28.42720 | 12231 ft | 412 kts | 79° |
| 2026-04-30 12:26 | -25.49637 | 28.45801 | 12218 ft | 395 kts | 79° |
| 2026-04-30 12:26 | -25.49277 | 28.48804 | 12229 ft | 399 kts | 79° |
| 2026-04-30 12:27 | -25.48905 | 28.51870 | 12239 ft | 412 kts | 79° |
| 2026-04-30 12:27 | -25.48518 | 28.55059 | 12226 ft | 413 kts | 79° |
| 2026-04-30 12:27 | -25.48145 | 28.58160 | 12238 ft | 412 kts | 79° |
| 2026-04-30 12:27 | -25.47766 | 28.61302 | 12243 ft | 412 kts | 79° |
| 2026-04-30 12:28 | -25.47386 | 28.64441 | 12229 ft | 412 kts | 79° |
| 2026-04-30 12:28 | -25.47005 | 28.67582 | 12224 ft | 411 kts | 79° |
| 2026-04-30 12:28 | -25.46626 | 28.70707 | 12242 ft | 410 kts | 79° |
| 2026-04-30 12:28 | -25.46244 | 28.73835 | 12234 ft | 410 kts | 79° |
| 2026-04-30 12:29 | -25.46015 | 28.76983 | 12228 ft | 414 kts | 90° |
| 2026-04-30 12:29 | -25.46610 | 28.80115 | 12246 ft | 421 kts | 109° |
| 2026-04-30 12:29 | -25.48072 | 28.82932 | 12247 ft | 426 kts | 128° |
| 2026-04-30 12:29 | -25.50259 | 28.85143 | 12254 ft | 429 kts | 147° |
| 2026-04-30 12:30 | -25.52962 | 28.86523 | 12263 ft | 429 kts | 165° |
| 2026-04-30 12:30 | -25.55908 | 28.86944 | 12251 ft | 427 kts | 182° |
| 2026-04-30 12:30 | -25.58859 | 28.86729 | 12256 ft | 425 kts | 187° |
| 2026-04-30 12:30 | -25.61801 | 28.86376 | 12250 ft | 425 kts | 189° |
| 2026-04-30 12:31 | -25.64717 | 28.85995 | 12166 ft | 419 kts | 189° |
| 2026-04-30 12:31 | -25.67594 | 28.85614 | 11907 ft | 414 kts | 189° |
| 2026-04-30 12:31 | -25.70450 | 28.85233 | 11671 ft | 413 kts | 189° |
| 2026-04-30 12:31 | -25.73303 | 28.84854 | 11486 ft | 412 kts | 189° |
| 2026-04-30 12:32 | -25.76140 | 28.84476 | 11530 ft | 411 kts | 189° |
| 2026-04-30 12:32 | -25.78996 | 28.84096 | 11543 ft | 414 kts | 189° |
| 2026-04-30 12:32 | -25.81850 | 28.83718 | 11539 ft | 413 kts | 189° |
| 2026-04-30 12:32 | -25.84635 | 28.83041 | 11536 ft | 409 kts | 204° |
| 2026-04-30 12:33 | -25.87063 | 28.81480 | 11556 ft | 401 kts | 221° |
| 2026-04-30 12:33 | -25.89157 | 28.79452 | 11552 ft | 399 kts | 226° |
| 2026-04-30 12:33 | -25.91169 | 28.77338 | 11553 ft | 398 kts | 227° |
| 2026-04-30 12:33 | -25.93162 | 28.75203 | 11549 ft | 398 kts | 227° |
| 2026-04-30 12:34 | -25.95153 | 28.73062 | 11486 ft | 399 kts | 227° |
| 2026-04-30 12:34 | -25.97124 | 28.70942 | 11390 ft | 387 kts | 227° |
| 2026-04-30 12:34 | -25.99026 | 28.68905 | 11266 ft | 372 kts | 227° |
| 2026-04-30 12:34 | -26.00830 | 28.66981 | 11164 ft | 358 kts | 227° |
| 2026-04-30 12:35 | -26.02598 | 28.65105 | 11087 ft | 345 kts | 228° |
| 2026-04-30 12:35 | -26.04264 | 28.63254 | 11069 ft | 332 kts | 226° |
| 2026-04-30 12:35 | -26.05821 | 28.61398 | 10979 ft | 324 kts | 227° |
| 2026-04-30 12:35 | -26.07348 | 28.59552 | 10910 ft | 327 kts | 227° |
| 2026-04-30 12:36 | -26.08903 | 28.57666 | 10851 ft | 333 kts | 227° |
| 2026-04-30 12:36 | -26.10378 | 28.55677 | 10763 ft | 334 kts | 238° |
| 2026-04-30 12:36 | -26.11486 | 28.53414 | 10703 ft | 332 kts | 243° |
| 2026-04-30 12:36 | -26.12503 | 28.51107 | 10623 ft | 331 kts | 244° |
| 2026-04-30 12:37 | -26.13501 | 28.48800 | 10550 ft | 331 kts | 244° |
| 2026-04-30 12:37 | -26.14494 | 28.46491 | 10467 ft | 331 kts | 244° |
| 2026-04-30 12:37 | -26.15486 | 28.44177 | 10369 ft | 331 kts | 244° |
| 2026-04-30 12:37 | -26.16476 | 28.41865 | 10263 ft | 331 kts | 244° |
| 2026-04-30 12:38 | -26.17469 | 28.39547 | 10169 ft | 331 kts | 244° |
| 2026-04-30 12:38 | -26.18460 | 28.37231 | 10074 ft | 331 kts | 244° |
| 2026-04-30 12:38 | -26.19450 | 28.34917 | 9969 ft | 331 kts | 244° |
| 2026-04-30 12:38 | -26.20439 | 28.32606 | 9864 ft | 331 kts | 244° |
| 2026-04-30 12:39 | -26.21428 | 28.30296 | 9768 ft | 330 kts | 244° |
| 2026-04-30 12:39 | -26.22415 | 28.27990 | 9668 ft | 329 kts | 244° |
| 2026-04-30 12:39 | -26.23399 | 28.25692 | 9566 ft | 329 kts | 244° |
| 2026-04-30 12:39 | -26.24369 | 28.23427 | 9471 ft | 328 kts | 244° |
| 2026-04-30 12:40 | -26.25363 | 28.21107 | 9365 ft | 327 kts | 244° |
| 2026-04-30 12:40 | -26.26342 | 28.18823 | 9253 ft | 326 kts | 244° |
| 2026-04-30 12:40 | -26.27319 | 28.16543 | 9147 ft | 326 kts | 244° |
| 2026-04-30 12:40 | -26.28282 | 28.14295 | 9045 ft | 326 kts | 244° |
| 2026-04-30 12:41 | -26.29104 | 28.11952 | 8907 ft | 325 kts | 258° |
| 2026-04-30 12:41 | -26.29447 | 28.09465 | 8815 ft | 324 kts | 263° |
| 2026-04-30 12:41 | -26.29691 | 28.06974 | 8703 ft | 324 kts | 264° |
| 2026-04-30 12:41 | -26.29918 | 28.04479 | 8590 ft | 323 kts | 264° |
| 2026-04-30 12:42 | -26.30140 | 28.01986 | 8469 ft | 323 kts | 264° |
| 2026-04-30 12:42 | -26.30358 | 27.99503 | 8361 ft | 321 kts | 264° |
| 2026-04-30 12:42 | -26.30573 | 27.97032 | 8250 ft | 321 kts | 264° |
| 2026-04-30 12:42 | -26.30788 | 27.94559 | 8162 ft | 320 kts | 264° |
| 2026-04-30 12:43 | -26.31001 | 27.92094 | 8118 ft | 320 kts | 264° |
| 2026-04-30 12:43 | -26.31215 | 27.89628 | 8069 ft | 320 kts | 264° |
| 2026-04-30 12:43 | -26.31428 | 27.87158 | 8019 ft | 320 kts | 264° |
| 2026-04-30 12:43 | -26.31640 | 27.84696 | 7968 ft | 319 kts | 264° |
| 2026-04-30 12:44 | -26.31852 | 27.82233 | 7918 ft | 319 kts | 264° |
| 2026-04-30 12:44 | -26.32012 | 27.79759 | 7787 ft | 323 kts | 273° |
| 2026-04-30 12:44 | -26.31354 | 27.77406 | 7744 ft | 319 kts | 303° |
| 2026-04-30 12:44 | -26.29779 | 27.75752 | 7734 ft | 309 kts | 331° |
| 2026-04-30 12:45 | -26.27946 | 27.74663 | 7751 ft | 286 kts | 330° |
| 2026-04-30 12:45 | -26.26300 | 27.73590 | 7724 ft | 263 kts | 329° |
| 2026-04-30 12:45 | -26.24793 | 27.72574 | 7706 ft | 243 kts | 328° |
| 2026-04-30 12:45 | -26.23406 | 27.71629 | 7707 ft | 225 kts | 328° |
| 2026-04-30 12:46 | -26.22105 | 27.70739 | 7720 ft | 217 kts | 328° |
| 2026-04-30 12:46 | -26.20818 | 27.69859 | 7728 ft | 217 kts | 328° |
| 2026-04-30 12:46 | -26.19538 | 27.68983 | 7741 ft | 212 kts | 328° |
| 2026-04-30 12:46 | -26.18314 | 27.68146 | 7728 ft | 200 kts | 329° |
| 2026-04-30 12:47 | -26.17027 | 27.67687 | 7739 ft | 194 kts | 355° |
| 2026-04-30 12:47 | -26.15668 | 27.67735 | 7734 ft | 197 kts | 10° |
| 2026-04-30 12:47 | -26.14361 | 27.68158 | 7737 ft | 196 kts | 25° |
| 2026-04-30 12:47 | -26.13244 | 27.69004 | 7734 ft | 194 kts | 44° |
| 2026-04-30 12:48 | -26.12315 | 27.70095 | 7736 ft | 195 kts | 48° |
| 2026-04-30 12:48 | -26.11410 | 27.71216 | 7735 ft | 195 kts | 48° |
| 2026-04-30 12:48 | -26.10506 | 27.72339 | 7740 ft | 195 kts | 48° |
| 2026-04-30 12:48 | -26.09597 | 27.73467 | 7741 ft | 196 kts | 48° |
| 2026-04-30 12:49 | -26.08998 | 27.74211 | 7756 ft | 195 kts | 48° |
| 2026-04-30 12:49 | -26.08091 | 27.75336 | 7742 ft | 194 kts | 48° |
| 2026-04-30 12:49 | -26.06910 | 27.76786 | 7730 ft | 188 kts | 47° |
| 2026-04-30 12:49 | -26.06057 | 27.77829 | 7705 ft | 175 kts | 47° |
| 2026-04-30 12:50 | -26.05244 | 27.78822 | 7717 ft | 173 kts | 47° |
| 2026-04-30 12:50 | -26.04433 | 27.79814 | 7673 ft | 181 kts | 47° |
| 2026-04-30 12:50 | -26.03842 | 27.80536 | 7767 ft | 190 kts | 47° |
| 2026-04-30 12:50 | -26.02740 | 27.81896 | 7334 ft | 172 kts | 49° |
| 2026-04-30 12:51 | -26.02209 | 27.82572 | 6969 ft | 173 kts | 49° |
| 2026-04-30 12:51 | -26.01449 | 27.83579 | 6489 ft | 170 kts | 50° |
| 2026-04-30 12:51 | -26.00697 | 27.84572 | 6090 ft | 170 kts | 49° |
| 2026-04-30 12:51 | -25.99918 | 27.85528 | 5846 ft | 165 kts | 46° |
| 2026-04-30 12:52 | -25.99115 | 27.86431 | 5630 ft | 161 kts | 45° |
| 2026-04-30 12:52 | -25.98335 | 27.87340 | 5358 ft | 168 kts | 48° |
| 2026-04-30 12:52 | -25.97574 | 27.88274 | 5264 ft | 162 kts | 47° |
| 2026-04-30 12:52 | -25.96825 | 27.89179 | 5092 ft | 156 kts | 47° |
| 2026-04-30 12:53 | -25.96062 | 27.90065 | 4914 ft | 159 kts | 45° |
| 2026-04-30 12:53 | -25.95315 | 27.90947 | 4686 ft | 160 kts | 47° |
| 2026-04-30 12:53 | -25.94574 | 27.91846 | 4523 ft | 152 kts | 47° |
| 2026-04-30 12:53 | -25.93918 | 27.92628 | 4464 ft | 115 kts | 47° |
| 2026-04-30 12:54 | -25.93503 | 27.93125 | 4436 ft | 69 kts | 47° |
| 2026-04-30 12:54 | -25.93209 | 27.93478 | 4414 ft | 49 kts | 47° |
| 2026-04-30 12:54 | -25.93024 | 27.93699 | 4399 ft | 28 kts | 47° |
| 2026-04-30 12:54 | -25.92929 | 27.93725 | 4397 ft | 13 kts | 331° |
| 2026-04-30 12:55 | -25.92864 | 27.93664 | 4399 ft | 12 kts | 303° |
| 2026-04-30 12:55 | -25.92888 | 27.93584 | 4400 ft | 12 kts | 227° |
| 2026-04-30 12:55 | -25.92943 | 27.93517 | 4404 ft | 12 kts | 227° |
| 2026-04-30 12:55 | -25.92997 | 27.93453 | 4408 ft | 11 kts | 226° |
| 2026-04-30 12:56 | -25.93050 | 27.93390 | 4413 ft | 11 kts | 227° |
| 2026-04-30 12:56 | -25.93101 | 27.93329 | 4415 ft | 11 kts | 227° |
| 2026-04-30 12:56 | -25.93150 | 27.93269 | 4419 ft | 10 kts | 227° |
| 2026-04-30 12:56 | -25.93198 | 27.93212 | 4422 ft | 10 kts | 228° |
| 2026-04-30 12:57 | -25.93244 | 27.93155 | 4426 ft | 10 kts | 228° |
| 2026-04-30 12:57 | -25.93290 | 27.93100 | 4429 ft | 9 kts | 227° |
| 2026-04-30 12:57 | -25.93334 | 27.93047 | 4433 ft | 9 kts | 227° |
| 2026-04-30 12:57 | -25.93377 | 27.92995 | 4437 ft | 9 kts | 227° |
| 2026-04-30 12:58 | -25.93423 | 27.92940 | 4438 ft | 11 kts | 227° |
| 2026-04-30 12:58 | -25.93475 | 27.92876 | 4441 ft | 11 kts | 228° |
| 2026-04-30 12:58 | -25.93520 | 27.92813 | 4445 ft | 10 kts | 253° |
| 2026-04-30 12:58 | -25.93518 | 27.92765 | 4446 ft | 2 kts | 276° |
| 2026-04-30 12:59 | -25.93522 | 27.92742 | 4447 ft | 5 kts | 250° |
| 2026-04-30 12:59 | -25.93545 | 27.92709 | 4449 ft | 5 kts | 229° |
| 2026-04-30 12:59 | -25.93565 | 27.92678 | 4451 ft | 4 kts | 257° |
| 2026-04-30 12:59 | -25.93553 | 27.92652 | 4451 ft | 4 kts | 310° |
| 2026-04-30 13:00 | -25.93533 | 27.92632 | 4451 ft | 2 kts | 319° |
| 2026-04-30 13:00 | -25.93527 | 27.92626 | 4451 ft | 0 kts | 319° |